Time;durP1;ratioP1;P1;durP2;ratioP2;P2;SDS_P1;SDS_P2;PMS_P1;PMS_P2;Temp;Humidity;BMP_temperature;BMP_pressure;BME280_temperature;BME280_humidity;BME280_pressure;Samples;Min_cycle;Max_cycle;Signal;HPM_P1;HPM_P2
2022/10/10 00:00:42;;;;;;;;;;;;;;;7.96;100.00;100330.45;1747104;80;21347;-66
2022/10/10 00:03:09;;;;;;;3.72;1.30;;;;;;;7.94;100.00;100329.84;1743331;81;20111;-66
2022/10/10 00:05:37;;;;;;;4.12;1.25;;;;;;;7.90;100.00;100334.66;1734072;81;21095;-66
2022/10/10 00:08:05;;;;;;;4.60;1.10;;;;;;;7.86;100.00;100337.02;1751355;81;21000;-67
2022/10/10 00:10:32;;;;;;;7.30;1.30;;;;;;;7.83;100.00;100334.77;1746122;81;21354;-66
2022/10/10 00:13:00;;;;;;;5.20;1.15;;;;;;;7.76;100.00;100337.34;1733879;81;21468;-65
2022/10/10 00:15:28;;;;;;;4.83;1.00;;;;;;;7.73;100.00;100331.02;1740472;81;20999;-66
2022/10/10 00:17:54;;;;;;;;;;;;;;;7.73;100.00;100329.66;1717564;81;21085;-66
2022/10/10 00:20:21;;;;;;;2.80;0.80;;;;;;;7.70;100.00;100328.79;1740084;81;20111;-66
2022/10/10 00:22:48;;;;;;;6.10;1.20;;;;;;;7.64;100.00;100325.69;1751817;81;21091;-67
2022/10/10 00:25:16;;;;;;;4.47;1.07;;;;;;;7.60;100.00;100334.83;1760583;81;21019;-67
2022/10/10 00:27:43;;;;;;;4.62;1.27;;;;;;;7.57;100.00;100333.12;1730872;81;21015;-68
2022/10/10 00:30:11;;;;;;;5.87;1.40;;;;;;;7.60;100.00;100343.48;1746644;81;21556;-66
2022/10/10 00:32:38;;;;;;;3.50;1.12;;;;;;;7.60;100.00;100331.28;1735355;81;20996;-67
2022/10/10 00:35:05;;;;;;;;;;;;;;;7.61;100.00;100339.72;1750310;81;21015;-67
2022/10/10 00:37:33;;;;;;;5.62;1.10;;;;;;;7.58;100.00;100336.13;1740492;81;20094;-67
2022/10/10 00:40:00;;;;;;;;;;;;;;;7.51;100.00;100344.36;1750307;81;21007;-67
2022/10/10 00:42:27;;;;;;;3.25;1.17;;;;;;;7.46;100.00;100337.48;1758459;81;20108;-67
2022/10/10 00:45:37;;;;;;;4.72;1.00;;;;;;;7.41;100.00;100336.84;1763499;81;20986;-65
2022/10/10 00:48:14;;;;;;;5.95;1.27;;;;;;;7.42;100.00;100345.79;1764431;81;20994;-67
2022/10/10 00:50:54;;;;;;;6.47;1.20;;;;;;;7.43;100.00;100344.21;1743563;81;21535;-67
2022/10/10 00:53:25;;;;;;;3.52;0.95;;;;;;;7.44;100.00;100347.72;1755854;81;21004;-67
2022/10/10 00:55:52;;;;;;;5.28;1.35;;;;;;;7.38;100.00;100344.08;1756801;80;20985;-68
2022/10/10 00:58:18;;;;;;;3.72;1.05;;;;;;;7.37;100.00;100349.20;1756591;81;21438;-67
2022/10/10 01:00:45;;;;;;;3.75;1.10;;;;;;;7.39;100.00;100349.80;1756572;81;21052;-67
2022/10/10 01:03:12;;;;;;;2.30;1.00;;;;;;;7.41;100.00;100349.55;1755504;81;21438;-66
2022/10/10 01:05:38;;;;;;;2.70;1.12;;;;;;;7.40;100.00;100346.02;1757938;81;21034;-66
2022/10/10 01:08:05;;;;;;;2.92;0.98;;;;;;;7.41;100.00;100342.78;1755709;81;21023;-64
2022/10/10 01:10:33;;;;;;;3.92;1.17;;;;;;;7.38;100.00;100348.14;1750564;81;21574;-66
2022/10/10 01:13:23;;;;;;;5.45;1.00;;;;;;;7.35;100.00;100347.27;1757393;80;21553;-67
2022/10/10 01:16:13;;;;;;;3.55;0.90;;;;;;;7.35;100.00;100351.86;1653110;83;21590;-66
2022/10/10 01:18:59;;;;;;;5.00;1.35;;;;;;;7.34;100.00;100353.73;1689138;83;21016;-66
2022/10/10 01:21:41;;;;;;;4.90;1.10;;;;;;;7.32;100.00;100353.69;1673196;85;21110;-66
2022/10/10 01:24:43;;;;;;;5.67;1.30;;;;;;;7.29;100.00;100348.74;1704976;83;21338;-68
2022/10/10 01:27:25;;;;;;;6.62;1.40;;;;;;;7.26;100.00;100351.38;1716867;82;21053;-69
2022/10/10 01:29:59;;;;;;;3.27;1.07;;;;;;;7.22;100.00;100351.58;1754009;81;21545;-67
2022/10/10 01:32:34;;;;;;;3.80;1.00;;;;;;;7.23;100.00;100353.20;1756319;81;21010;-71
2022/10/10 01:35:18;;;;;;;5.12;1.42;;;;;;;7.23;100.00;100353.20;1753416;81;21561;-69
2022/10/10 01:37:49;;;;;;;3.33;1.15;;;;;;;7.21;100.00;100358.04;1752835;80;21101;-69
2022/10/10 01:40:48;;;;;;;4.83;1.10;;;;;;;7.17;100.00;100364.15;1755827;81;21636;-66
2022/10/10 01:43:14;;;;;;;;;;;;;;;7.17;100.00;100369.56;1757685;81;20991;-69
2022/10/10 01:45:47;;;;;;;3.05;0.98;;;;;;;7.17;100.00;100371.75;1726507;81;20134;-66
2022/10/10 01:48:13;;;;;;;2.30;0.95;;;;;;;7.12;100.00;100368.91;1750604;81;21483;-66
2022/10/10 01:50:51;;;;;;;4.35;0.98;;;;;;;7.12;100.00;100381.09;1750528;80;21045;-67
2022/10/10 01:53:23;;;;;;;3.40;1.10;;;;;;;7.12;100.00;100373.52;1737562;81;21033;-67
2022/10/10 01:55:58;;;;;;;7.62;1.32;;;;;;;7.04;100.00;100373.33;1762241;81;21000;-65
2022/10/10 01:58:57;;;;;;;6.92;1.17;;;;;;;7.01;100.00;100373.80;1757382;81;21051;-69
2022/10/10 02:01:48;;;;;;;3.75;1.07;;;;;;;7.03;100.00;100378.97;1731394;80;21104;-67
2022/10/10 02:04:32;;;;;;;2.42;0.98;;;;;;;7.00;100.00;100381.09;1761716;81;21420;-67
2022/10/10 02:07:10;;;;;;;4.90;0.85;;;;;;;6.98;100.00;100384.54;1755943;81;21120;-67
2022/10/10 02:09:40;;;;;;;4.28;1.00;;;;;;;6.89;100.00;100383.77;1760552;81;21077;-66
2022/10/10 02:12:08;;;;;;;2.05;0.90;;;;;;;6.88;100.00;100384.29;1755725;80;21044;-67
2022/10/10 02:14:42;;;;;;;4.65;1.05;;;;;;;6.89;100.00;100398.12;1750759;81;21526;-67
2022/10/10 02:17:11;;;;;;;3.47;0.82;;;;;;;6.87;100.00;100398.07;1754023;81;21063;-68
2022/10/10 02:19:42;;;;;;;3.20;0.88;;;;;;;6.86;100.00;100395.89;1715434;82;21009;-67
2022/10/10 02:22:08;;;;;;;4.37;1.05;;;;;;;6.84;100.00;100397.98;1754187;81;21046;-67
2022/10/10 02:24:35;;;;;;;;;;;;;;;6.81;100.00;100399.80;1760097;81;21035;-67
2022/10/10 02:27:09;;;;;;;2.58;1.00;;;;;;;6.81;100.00;100401.68;1754812;80;20143;-66
2022/10/10 02:29:36;;;;;;;4.03;1.20;;;;;;;6.78;100.00;100407.56;1760845;81;21597;-69
2022/10/10 02:32:27;;;;;;;5.78;1.37;;;;;;;6.72;100.00;100416.61;1758448;81;21030;-69
2022/10/10 02:34:55;;;;;;;4.47;1.12;;;;;;;6.71;100.00;100410.37;1741333;81;21011;-68
2022/10/10 02:37:22;;;;;;;4.08;1.60;;;;;;;6.70;100.00;100406.52;1760897;80;21039;-65
2022/10/10 02:39:51;;;;;;;;;;;;;;;6.70;100.00;100413.29;1760220;81;21049;-67
2022/10/10 02:42:19;;;;;;;5.50;1.25;;;;;;;6.68;100.00;100417.59;1752067;81;20465;-67
2022/10/10 02:44:46;;;;;;;5.10;1.17;;;;;;;6.58;100.00;100415.97;1751911;81;20984;-67
2022/10/10 02:47:12;;;;;;;3.65;0.88;;;;;;;6.57;100.00;100414.31;1746881;81;21043;-66
2022/10/10 02:49:39;;;;;;;3.15;1.15;;;;;;;6.60;100.00;100422.48;1747345;81;21589;-66
2022/10/10 02:52:05;;;;;;;2.35;0.80;;;;;;;6.59;100.00;100421.66;1746303;81;21530;-66
2022/10/10 02:54:32;;;;;;;8.30;1.02;;;;;;;6.57;100.00;100420.24;1716519;81;20953;-68
2022/10/10 02:56:58;;;;;;;1.77;0.72;;;;;;;6.55;100.00;100421.02;1752271;81;21016;-68
2022/10/10 02:59:25;;;;;;;2.90;1.00;;;;;;;6.52;100.00;100422.27;1753264;81;21860;-68
2022/10/10 03:01:51;;;;;;;2.08;1.02;;;;;;;6.47;100.00;100421.62;1750826;81;21090;-67
2022/10/10 03:04:17;;;;;;;;;;;;;;;6.45;100.00;100430.48;1752588;81;20959;-68
2022/10/10 03:06:44;;;;;;;9.05;1.00;;;;;;;6.46;100.00;100428.09;1731266;81;20412;-68
2022/10/10 03:09:11;;;;;;;4.78;1.00;;;;;;;6.39;100.00;100425.99;1753041;81;21006;-68
2022/10/10 03:11:37;;;;;;;4.87;1.20;;;;;;;6.39;100.00;100435.98;1742930;81;21037;-66
2022/10/10 03:14:03;;;;;;;5.60;1.02;;;;;;;6.34;100.00;100431.80;1742581;82;21003;-69
2022/10/10 03:16:30;;;;;;;3.60;1.00;;;;;;;6.30;100.00;100426.54;1752596;80;21091;-69
2022/10/10 03:18:58;;;;;;;2.87;1.00;;;;;;;6.32;100.00;100432.53;1752668;81;21005;-65
2022/10/10 03:21:24;;;;;;;4.55;1.10;;;;;;;6.32;100.00;100430.66;1709864;83;21032;-67
2022/10/10 03:23:51;;;;;;;4.40;1.07;;;;;;;6.33;100.00;100433.67;1737842;81;21464;-68
2022/10/10 03:26:18;;;;;;;3.45;0.93;;;;;;;6.28;100.00;100436.22;1746590;81;21055;-68
2022/10/10 03:28:45;;;;;;;;;;;;;;;6.26;100.00;100436.98;1752640;81;21035;-68
2022/10/10 03:31:11;;;;;;;3.72;1.00;;;;;;;6.27;100.00;100436.46;1732624;81;20104;-66
2022/10/10 03:33:38;;;;;;;5.17;1.27;;;;;;;6.22;100.00;100437.13;1751285;81;20952;-67
2022/10/10 03:36:05;;;;;;;4.50;1.17;;;;;;;6.24;100.00;100437.72;1762254;81;21114;-67
2022/10/10 03:38:32;;;;;;;4.50;1.40;;;;;;;6.19;100.00;100441.64;1706235;83;20966;-68
2022/10/10 03:40:59;;;;;;;1.80;0.82;;;;;;;6.18;100.00;100441.86;1749056;81;21381;-69
2022/10/10 03:43:25;;;;;;;2.65;1.12;;;;;;;6.18;100.00;100444.04;1750017;81;21537;-67
2022/10/10 03:45:51;;;;;;;2.37;0.93;;;;;;;6.18;100.00;100437.80;1735845;80;21018;-67
2022/10/10 03:48:18;;;;;;;5.28;1.17;;;;;;;6.18;100.00;100444.56;1759156;81;20983;-66
2022/10/10 03:50:45;;;;;;;3.95;1.20;;;;;;;6.19;100.00;100449.75;1755653;81;21530;-66
2022/10/10 03:53:11;;;;;;;2.40;0.93;;;;;;;6.17;100.00;100448.31;1760546;81;20988;-68
2022/10/10 03:55:40;;;;;;;4.35;0.90;;;;;;;6.13;100.00;100452.54;1740166;80;21042;-67
2022/10/10 03:58:07;;;;;;;2.30;0.80;;;;;;;6.15;100.00;100453.95;1756199;81;20972;-66
2022/10/10 04:00:34;;;;;;;6.42;1.05;;;;;;;6.15;100.00;100452.61;1743196;81;21034;-66
2022/10/10 04:03:05;;;;;;;4.37;0.93;;;;;;;6.16;100.00;100463.73;1754634;81;21019;-67
2022/10/10 04:05:36;;;;;;;5.42;1.10;;;;;;;6.13;100.00;100459.30;1760843;81;20984;-68
2022/10/10 04:08:04;;;;;;;2.17;0.88;;;;;;;6.11;100.00;100464.92;1760071;81;21470;-68
2022/10/10 04:10:31;;;;;;;4.12;1.12;;;;;;;6.12;100.00;100465.23;1754314;81;21027;-66
2022/10/10 04:12:57;;;;;;;3.08;1.07;;;;;;;6.13;100.00;100466.06;1758306;80;21734;-67
2022/10/10 04:15:24;;;;;;;4.72;0.98;;;;;;;6.09;100.00;100464.84;1765940;81;21058;-67
2022/10/10 04:17:51;;;;;;;4.87;1.17;;;;;;;6.06;100.00;100466.66;1757790;81;21437;-67
2022/10/10 04:20:19;;;;;;;5.05;0.95;;;;;;;6.08;100.00;100472.65;1752657;81;21036;-66
2022/10/10 04:22:46;;;;;;;3.42;0.90;;;;;;;6.09;100.00;100471.61;1743954;81;21012;-68
2022/10/10 04:25:12;;;;;;;2.70;0.95;;;;;;;6.11;100.00;100478.43;1756970;81;21055;-69
2022/10/10 04:27:39;;;;;;;3.95;0.95;;;;;;;6.13;100.00;100473.61;1757379;80;20971;-68
2022/10/10 04:30:06;;;;;;;2.55;1.15;;;;;;;6.14;100.00;100471.73;1745573;81;21467;-68
2022/10/10 04:32:33;;;;;;;3.05;1.10;;;;;;;6.09;100.00;100473.79;1728540;81;21863;-68
2022/10/10 04:34:59;;;;;;;3.45;1.20;;;;;;;6.08;100.00;100479.41;1751664;81;20960;-68
2022/10/10 04:37:26;;;;;;;3.58;1.12;;;;;;;6.10;100.00;100478.13;1754861;81;21086;-67
2022/10/10 04:39:52;;;;;;;5.28;1.00;;;;;;;6.13;100.00;100480.92;1753365;81;20959;-68
2022/10/10 04:42:19;;;;;;;4.20;1.17;;;;;;;6.14;100.00;100477.15;1757606;81;21071;-66
2022/10/10 04:44:45;;;;;;;3.10;0.90;;;;;;;6.16;100.00;100482.66;1754625;81;21011;-67
2022/10/10 04:47:12;;;;;;;3.10;1.20;;;;;;;6.16;100.00;100481.82;1753795;81;21007;-67
2022/10/10 04:49:42;;;;;;;4.60;0.90;;;;;;;6.18;100.00;100478.36;1757604;81;21574;-68
2022/10/10 04:52:09;;;;;;;5.40;1.25;;;;;;;6.19;100.00;100488.13;1754848;80;21030;-66
2022/10/10 04:54:35;;;;;;;;;;;;;;;6.20;100.00;100491.94;1761706;81;21005;-69
2022/10/10 04:57:02;;;;;;;4.03;1.20;;;;;;;6.25;100.00;100492.62;1759425;80;20391;-67
2022/10/10 04:59:28;;;;;;;;;;;;;;;6.24;100.00;100499.07;1760430;81;21054;-67
2022/10/10 05:01:55;;;;;;;3.55;0.90;;;;;;;6.28;100.00;100494.35;1761233;80;20416;-69
2022/10/10 05:04:22;;;;;;;4.53;1.17;;;;;;;6.21;100.00;100496.30;1732021;81;20980;-67
2022/10/10 05:06:49;;;;;;;5.55;1.25;;;;;;;6.23;100.00;100498.27;1758946;80;21529;-67
2022/10/10 05:09:16;;;;;;;;;;;;;;;6.29;100.00;100504.13;1755783;81;21039;-67
2022/10/10 05:11:42;;;;;;;5.83;1.02;;;;;;;6.35;100.00;100503.73;1757276;80;20140;-66
2022/10/10 05:14:09;;;;;;;;;;;;;;;6.32;100.00;100502.31;1758262;81;21026;-67
2022/10/10 05:16:37;;;;;;;5.25;1.20;;;;;;;6.36;100.00;100509.45;1758540;80;20104;-67
2022/10/10 05:19:03;;;;;;;4.25;1.32;;;;;;;6.28;100.00;100511.93;1757181;81;21034;-68
2022/10/10 05:21:31;;;;;;;2.37;0.93;;;;;;;6.37;100.00;100516.00;1754655;80;21049;-68
2022/10/10 05:23:57;;;;;;;1.45;0.80;;;;;;;6.45;100.00;100521.09;1756306;81;21407;-67
2022/10/10 05:26:23;;;;;;;5.70;1.57;;;;;;;6.55;100.00;100527.87;1756647;80;21035;-66
2022/10/10 05:28:50;;;;;;;2.27;1.02;;;;;;;6.57;100.00;100521.69;1757560;81;21333;-67
2022/10/10 05:31:17;;;;;;;2.10;1.02;;;;;;;6.60;100.00;100523.94;1736516;81;21665;-68
2022/10/10 05:33:44;;;;;;;2.70;1.32;;;;;;;6.68;100.00;100521.77;1755931;81;20961;-68
2022/10/10 05:36:12;;;;;;;5.22;1.10;;;;;;;6.79;100.00;100521.00;1746313;81;21059;-68
2022/10/10 05:38:40;;;;;;;3.67;1.20;;;;;;;6.95;100.00;100530.34;1748964;81;21023;-68
2022/10/10 05:41:07;;;;;;;4.08;1.50;;;;;;;7.07;100.00;100529.05;1739706;80;21522;-68
2022/10/10 05:43:34;;;;;;;6.17;1.22;;;;;;;7.28;100.00;100528.02;1752357;82;20947;-68
2022/10/10 05:46:01;;;;;;;3.62;1.02;;;;;;;7.45;100.00;100534.41;1744832;82;21629;-69
2022/10/10 05:48:28;;;;;;;;;;;;;;;7.59;100.00;100536.38;1734153;82;20964;-70
2022/10/10 05:50:55;;;;;;;5.03;1.27;;;;;;;7.77;100.00;100528.16;1749034;80;20107;-66
2022/10/10 05:53:22;;;;;;;5.70;1.25;;;;;;;7.80;100.00;100534.99;1750417;82;20963;-69
2022/10/10 05:55:49;;;;;;;4.40;1.07;;;;;;;7.88;100.00;100533.30;1751985;80;21517;-68
2022/10/10 05:58:15;;;;;;;4.03;1.47;;;;;;;8.00;100.00;100536.33;1751879;82;21003;-67
2022/10/10 06:00:44;;;;;;;4.08;1.60;;;;;;;8.14;100.00;100533.38;1748787;82;21514;-67
2022/10/10 06:03:13;;;;;;;4.37;1.40;;;;;;;8.27;100.00;100539.38;1751751;80;21530;-69
2022/10/10 06:05:40;;;;;;;3.30;1.10;;;;;;;8.41;100.00;100542.16;1746650;82;21602;-67
2022/10/10 06:08:06;;;;;;;;;;;;;;;8.46;100.00;100544.17;1690951;83;20987;-68
2022/10/10 06:10:39;;;;;;;2.87;1.32;;;;;;;8.55;100.00;100553.58;1730085;82;20165;-69
2022/10/10 06:13:05;;;;;;;3.65;1.40;;;;;;;8.61;100.00;100543.12;1752245;82;21011;-69
2022/10/10 06:15:32;;;;;;;4.08;1.37;;;;;;;8.64;100.00;100542.66;1752213;82;21022;-68
2022/10/10 06:17:59;;;;;;;3.30;1.50;;;;;;;8.73;100.00;100556.14;1743846;82;21034;-73
2022/10/10 06:20:27;;;;;;;4.60;1.55;;;;;;;8.79;100.00;100556.53;1740459;82;21565;-70
2022/10/10 06:22:54;;;;;;;3.70;1.45;;;;;;;8.80;100.00;100547.33;1751918;80;21047;-68
2022/10/10 06:25:20;;;;;;;;;;;;;;;8.83;100.00;100540.59;1755177;82;21301;-71
2022/10/10 06:27:46;;;;;;;5.28;1.52;;;;;;;8.80;100.00;100547.33;1739226;79;70395;-66
2022/10/10 06:30:13;;;;;;;4.40;1.52;;;;;;;8.66;100.00;100545.95;1761652;81;20983;-70
2022/10/10 06:32:39;;;;;;;;;;;;;;;8.71;100.00;100543.88;1756157;81;21082;-67
2022/10/10 06:35:08;;;;;;;5.60;1.65;;;;;;;8.77;100.00;100551.89;1738808;81;20314;-69
2022/10/10 06:37:35;;;;;;;6.28;1.70;;;;;;;8.82;100.00;100560.68;1741385;82;21031;-67
2022/10/10 06:40:02;;;;;;;2.22;1.20;;;;;;;8.88;100.00;100557.82;1682883;79;21501;-67
2022/10/10 06:42:29;;;;;;;3.47;1.30;;;;;;;8.94;100.00;100552.78;1623280;87;21992;-67
2022/10/10 06:44:56;;;;;;;3.58;1.32;;;;;;;9.14;100.00;100561.84;1642604;86;21094;-70
2022/10/10 06:47:23;;;;;;;3.47;1.60;;;;;;;9.25;100.00;100560.97;1660301;86;21110;-71
2022/10/10 06:49:50;;;;;;;3.60;1.45;;;;;;;9.27;100.00;100560.74;1651395;86;21109;-74
2022/10/10 06:52:16;;;;;;;5.70;1.47;;;;;;;9.33;100.00;100561.12;1646631;86;21067;-73
2022/10/10 06:54:43;;;;;;;3.80;1.32;;;;;;;9.48;100.00;100562.23;1636981;86;21099;-73
2022/10/10 06:59:51;;;;;;;4.20;1.50;;;;;;;9.70;100.00;100560.16;1707713;81;21105;-69
2022/10/10 07:02:18;;;;;;;;;;;;;;;9.84;100.00;100565.03;1715987;82;21050;-67
2022/10/10 07:04:45;;;;;;;3.00;1.55;;;;;;;10.00;100.00;100559.29;1708359;82;20133;-69
2022/10/10 07:07:11;;;;;;;2.75;1.20;;;;;;;10.15;100.00;100562.81;1673124;85;21033;-67
2022/10/10 07:09:39;;;;;;;3.85;1.50;;;;;;;10.42;100.00;100563.75;1677502;84;21096;-70
2022/10/10 07:12:05;;;;;;;3.12;1.10;;;;;;;10.49;100.00;100558.95;1676446;84;21650;-69
2022/10/10 07:14:32;;;;;;;;;;;;;;;10.55;100.00;100555.78;1672184;84;21124;-70
2022/10/10 07:17:00;;;;;;;5.42;1.50;;;;;;;10.68;100.00;100555.41;1665485;85;20750;-69
2022/10/10 07:19:26;;;;;;;5.45;1.30;;;;;;;10.56;100.00;100556.08;1693588;84;21096;-68
2022/10/10 07:21:53;;;;;;;3.22;1.25;;;;;;;10.74;100.00;100556.58;1688201;85;21600;-70
2022/10/10 07:24:20;;;;;;;3.67;1.30;;;;;;;10.84;100.00;100552.61;1669080;86;21066;-69
2022/10/10 07:26:46;;;;;;;4.65;1.40;;;;;;;10.84;100.00;100547.16;1722528;83;22192;-72
2022/10/10 07:29:12;;;;;;;;;;;;;;;10.89;100.00;100546.41;1714903;83;21088;-69
2022/10/10 07:31:38;;;;;;;2.80;1.30;;;;;;;10.90;100.00;100539.89;1718041;82;20795;-69
2022/10/10 07:34:05;;;;;;;5.65;1.30;;;;;;;10.84;100.00;100543.64;1716478;83;21108;-67
2022/10/10 07:36:32;;;;;;;3.98;1.32;;;;;;;10.91;100.00;100542.91;1714722;83;21036;-70
2022/10/10 07:38:58;;;;;;;4.20;1.12;;;;;;;10.99;100.00;100539.19;1708855;83;21108;-71
2022/10/10 07:41:25;;;;;;;3.33;1.17;;;;;;;11.04;100.00;100545.23;1706388;82;21500;-69
2022/10/10 07:43:54;;;;;;;3.60;1.22;;;;;;;11.15;100.00;100541.55;1721819;83;21096;-69
2022/10/10 07:46:21;;;;;;;4.53;1.10;;;;;;;11.24;100.00;100541.36;1713047;82;21038;-68
2022/10/10 07:48:49;;;;;;;2.15;0.90;;;;;;;11.34;100.00;100537.91;1711186;82;21049;-70
2022/10/10 07:51:15;;;;;;;3.02;0.80;;;;;;;11.49;100.00;100542.16;1716132;82;20999;-70
2022/10/10 07:53:43;;;;;;;2.37;0.90;;;;;;;11.65;100.00;100541.77;1718036;82;21046;-70
2022/10/10 07:56:11;;;;;;;5.15;1.27;;;;;;;11.67;100.00;100547.78;1716104;81;21030;-70
2022/10/10 07:58:37;;;;;;;3.55;1.17;;;;;;;11.60;100.00;100537.09;1714588;82;21053;-72
2022/10/10 08:01:08;;;;;;;7.55;1.85;;;;;;;11.55;100.00;100530.20;1685634;84;22225;-68
2022/10/10 08:03:35;;;;;;;5.72;1.70;;;;;;;11.56;100.00;100535.95;1668885;85;21165;-69
2022/10/10 08:06:03;;;;;;;4.67;1.25;;;;;;;11.57;100.00;100540.34;1678852;85;21026;-70
2022/10/10 08:08:32;;;;;;;7.15;2.35;;;;;;;11.64;100.00;100534.66;1673097;84;21150;-74
2022/10/10 08:10:59;;;;;;;4.28;1.32;;;;;;;11.71;100.00;100537.49;1697840;84;21493;-71
2022/10/10 08:13:26;;;;;;;2.47;1.12;;;;;;;11.79;100.00;100547.11;1687815;84;21094;-72
2022/10/10 08:15:52;;;;;;;3.80;1.02;;;;;;;11.87;100.00;100550.70;1683666;83;21022;-75
2022/10/10 08:18:20;;;;;;;4.03;1.15;;;;;;;11.90;100.00;100536.00;1673922;85;21574;-70
2022/10/10 08:20:47;;;;;;;2.60;0.93;;;;;;;12.05;100.00;100542.11;1676995;83;21036;-73
2022/10/10 08:23:13;;;;;;;;;;;;;;;12.10;100.00;100535.34;1680927;84;21069;-70
2022/10/10 08:25:40;;;;;;;5.70;1.20;;;;;;;12.09;100.00;100539.14;1684800;83;20187;-70
2022/10/10 08:28:06;;;;;;;3.60;1.10;;;;;;;11.95;100.00;100534.69;1678795;84;21616;-72
2022/10/10 08:30:33;;;;;;;5.17;1.47;;;;;;;11.97;100.00;100537.96;1678059;84;21035;-70
2022/10/10 08:33:00;;;;;;;;;;;;;;;12.12;100.00;100544.61;1695589;83;21109;-72
2022/10/10 08:35:26;;;;;;;3.17;1.20;;;;;;;12.13;100.00;100539.45;1681647;84;20519;-70
2022/10/10 08:37:53;;;;;;;6.37;1.30;;;;;;;12.05;100.00;100538.02;1689250;83;21168;-68
2022/10/10 08:40:20;;;;;;;3.60;1.20;;;;;;;12.12;100.00;100544.08;1682113;83;21336;-70
2022/10/10 08:42:51;;;;;;;3.77;1.12;;;;;;;12.22;100.00;100541.41;1691544;83;21635;-70
2022/10/10 08:45:24;;;;;;;3.58;1.10;;;;;;;12.30;100.00;100534.09;1690588;84;21053;-70
2022/10/10 08:48:04;;;;;;;2.62;1.15;;;;;;;12.42;100.00;100536.09;1677416;85;21476;-71
2022/10/10 08:50:38;;;;;;;5.00;1.10;;;;;;;12.53;100.00;100530.15;1679977;84;21081;-69
2022/10/10 08:53:14;;;;;;;2.77;0.90;;;;;;;12.60;100.00;100528.53;1675879;85;21164;-71
2022/10/10 08:55:42;;;;;;;1.77;0.80;;;;;;;12.64;100.00;100525.02;1682581;83;21696;-72
2022/10/10 08:58:36;;;;;;;3.60;1.10;;;;;;;12.59;100.00;100522.78;1680023;83;21074;-73
2022/10/10 09:01:19;;;;;;;2.77;0.90;;;;;;;12.59;100.00;100531.80;1720734;82;21646;-71
2022/10/10 09:03:52;;;;;;;5.55;1.00;;;;;;;12.70;100.00;100526.67;1728146;82;21087;-72
2022/10/10 09:07:00;;;;;;;2.62;1.10;;;;;;;12.89;100.00;100525.09;1719562;82;20999;-74
2022/10/10 09:09:41;;;;;;;3.87;0.88;;;;;;;13.01;100.00;100518.03;1722690;82;21074;-72
2022/10/10 09:12:20;;;;;;;3.80;0.78;;;;;;;13.20;100.00;100519.77;1717818;82;21627;-72
2022/10/10 09:15:19;;;;;;;3.27;0.98;;;;;;;13.36;100.00;100514.05;1707720;83;21097;-70
2022/10/10 09:18:16;;;;;;;2.25;0.82;;;;;;;13.41;100.00;100507.77;1715813;82;21097;-72
2022/10/10 09:21:15;;;;;;;4.50;0.75;;;;;;;13.42;100.00;100517.09;1710863;83;21784;-71
2022/10/10 09:23:50;;;;;;;1.87;0.80;;;;;;;13.51;100.00;100511.87;1724450;82;21119;-70
2022/10/10 09:26:21;;;;;;;1.57;0.55;;;;;;;13.54;100.00;100505.03;1710891;83;21511;-70
2022/10/10 09:29:07;;;;;;;2.85;0.75;;;;;;;13.59;100.00;100508.61;1699251;83;21116;-73
2022/10/10 09:31:39;;;;;;;5.92;0.70;;;;;;;13.54;100.00;100498.20;1719581;82;21038;-69
2022/10/10 09:34:23;;;;;;;2.85;1.10;;;;;;;13.44;100.00;100508.59;1719013;83;21054;-70
2022/10/10 09:36:49;;;;;;;2.30;0.90;;;;;;;13.42;100.00;100502.59;1721006;83;21061;-70
2022/10/10 09:39:39;;;;;;;3.83;1.00;;;;;;;13.45;100.00;100509.70;1723267;83;21999;-69
2022/10/10 09:42:11;;;;;;;3.15;0.80;;;;;;;13.53;100.00;100516.55;1724018;82;21120;-70
2022/10/10 09:44:40;;;;;;;2.65;0.93;;;;;;;13.53;100.00;100503.41;1745961;82;21141;-72
2022/10/10 09:47:17;;;;;;;3.50;0.70;;;;;;;13.46;100.00;100505.05;1717187;83;21080;-72
2022/10/10 09:49:44;;;;;;;2.75;0.80;;;;;;;13.42;100.00;100504.78;1711611;82;21061;-70
2022/10/10 09:52:29;;;;;;;4.03;0.90;;;;;;;13.41;100.00;100492.19;1707064;82;21041;-73
2022/10/10 09:56:54;;;;;;;3.17;0.80;;;;;;;13.42;100.00;100482.08;1798756;79;23800;-69
2022/10/10 09:59:43;;;;;;;3.42;0.90;;;;;;;13.30;100.00;100480.95;1734983;81;21062;-70
2022/10/10 10:02:26;;;;;;;2.10;0.95;;;;;;;13.29;100.00;100482.05;1723595;82;21047;-71
2022/10/10 10:04:53;;;;;;;4.40;0.70;;;;;;;13.30;100.00;100477.40;1748338;82;21066;-68
2022/10/10 10:07:30;;;;;;;4.62;0.78;;;;;;;13.35;100.00;100480.98;1744652;82;21042;-71
2022/10/10 10:10:04;;;;;;;1.75;0.72;;;;;;;13.39;100.00;100477.16;1724566;82;21086;-70
2022/10/10 10:12:40;;;;;;;3.60;0.65;;;;;;;13.35;100.00;100474.14;1691752;82;21062;-72
2022/10/10 10:15:20;;;;;;;2.33;0.60;;;;;;;13.36;100.00;100470.30;1721678;82;21110;-72
2022/10/10 10:17:50;;;;;;;3.17;0.80;;;;;;;13.38;100.00;100475.50;1737619;82;21042;-70
2022/10/10 10:20:32;;;;;;;2.67;0.70;;;;;;;13.32;100.00;100471.13;1746191;82;21042;-72
2022/10/10 10:22:59;;;;;;;2.60;0.60;;;;;;;13.33;100.00;100478.22;1734619;82;21094;-72
2022/10/10 10:25:34;;;;;;;1.42;0.60;;;;;;;13.36;100.00;100474.94;1730750;82;21030;-72
2022/10/10 10:28:14;;;;;;;1.85;0.60;;;;;;;13.37;100.00;100469.75;1721321;82;21066;-71
2022/10/10 10:30:42;;;;;;;5.47;0.70;;;;;;;13.43;100.00;100471.39;1720741;83;21149;-70
2022/10/10 10:33:36;;;;;;;3.25;0.78;;;;;;;13.48;100.00;100465.11;1721934;82;21177;-73
2022/10/10 10:36:23;;;;;;;2.45;0.70;;;;;;;13.52;100.00;100480.70;1721055;82;21129;-70
2022/10/10 10:39:14;;;;;;;3.62;0.70;;;;;;;13.51;100.00;100460.45;1724181;82;21691;-71
2022/10/10 10:42:01;;;;;;;4.08;0.60;;;;;;;13.48;100.00;100458.27;1735501;82;21513;-69
2022/10/10 10:44:36;;;;;;;4.25;0.78;;;;;;;13.51;100.00;100458.55;1738498;82;21126;-73
2022/10/10 10:47:16;;;;;;;1.57;0.45;;;;;;;13.52;100.00;100467.03;1722145;82;21058;-73
2022/10/10 10:50:12;;;;;;;3.27;0.60;;;;;;;13.55;100.00;100464.29;1760871;80;21067;-73
2022/10/10 10:52:59;;;;;;;2.10;0.47;;;;;;;13.58;100.00;100461.00;1725680;82;21017;-72
2022/10/10 10:55:37;;;;;;;3.65;0.80;;;;;;;13.53;100.00;100457.74;1735324;82;21580;-72
2022/10/10 10:58:21;;;;;;;2.00;0.72;;;;;;;13.58;100.00;100452.80;1746154;82;21090;-73
2022/10/10 11:00:51;;;;;;;4.15;0.80;;;;;;;13.64;100.00;100470.30;1734287;82;21631;-71
2022/10/10 11:03:26;;;;;;;2.87;0.68;;;;;;;13.68;100.00;100457.71;1740094;82;21937;-72
2022/10/10 11:06:40;;;;;;;2.42;0.82;;;;;;;13.73;100.00;100461.00;1681662;84;21105;-69
2022/10/10 11:09:32;;;;;;;1.47;0.40;;;;;;;13.73;100.00;100457.72;1731644;82;21097;-71
2022/10/10 11:12:36;;;;;;;2.05;0.70;;;;;;;13.66;100.00;100455.81;1741362;82;21027;-68
2022/10/10 11:15:19;;;;;;;1.75;0.57;;;;;;;13.69;100.00;100453.89;1730547;82;20975;-67
2022/10/10 11:18:17;;;;;;;3.22;0.70;;;;;;;13.76;100.00;100435.82;1719700;82;21027;-68
2022/10/10 11:20:48;;;;;;;2.83;0.60;;;;;;;13.79;100.00;100452.51;1735682;82;21031;-69
2022/10/10 11:23:21;;;;;;;2.77;0.47;;;;;;;13.79;100.00;100454.42;1714604;80;21102;-68
2022/10/10 11:25:59;;;;;;;2.58;0.50;;;;;;;13.76;100.00;100450.33;1737488;82;21081;-72
2022/10/10 11:28:39;;;;;;;1.62;0.40;;;;;;;13.76;100.00;100444.03;1741051;82;21062;-68
2022/10/10 11:31:16;;;;;;;1.87;0.37;;;;;;;13.75;100.00;100443.75;1731898;82;21054;-70
2022/10/10 11:33:50;;;;;;;1.37;0.42;;;;;;;13.77;100.00;100439.66;1732865;80;21660;-72
2022/10/10 11:36:19;;;;;;;2.80;0.50;;;;;;;13.83;100.00;100448.67;1722872;82;21678;-71
2022/10/10 11:38:59;;;;;;;1.47;0.37;;;;;;;13.82;100.00;100439.64;1739246;82;21113;-72
2022/10/10 11:41:37;;;;;;;1.30;0.50;;;;;;;13.84;99.68;100445.67;1679293;84;21599;-74
2022/10/10 11:44:16;;;;;;;;;;;;;;;13.86;98.79;100459.06;1736799;82;21071;-74
2022/10/10 11:47:15;;;;;;;4.90;0.40;;;;;;;13.87;99.68;100449.77;1733455;82;20133;-73
2022/10/10 11:49:58;;;;;;;1.77;0.40;;;;;;;13.81;96.99;100452.25;1738724;80;22185;-72
2022/10/10 11:52:59;;;;;;;2.62;0.50;;;;;;;13.79;95.97;100447.58;1732141;82;21557;-74